Time;durP1;ratioP1;P1;durP2;ratioP2;P2;SDS_P1;SDS_P2;PMS_P1;PMS_P2;Temp;Humidity;BMP_temperature;BMP_pressure;BME280_temperature;BME280_humidity;BME280_pressure;Samples;Min_cycle;Max_cycle;Signal;HPM_P1;HPM_P2
2023/03/29 00:01:32;;;;;;;0.57;0.30;;;16.70;68.60;;;;;;4987315;28;20050;-76
2023/03/29 00:03:59;;;;;;;1.67;0.50;;;16.70;68.70;;;;;;4999350;28;20033;-76
2023/03/29 00:06:24;;;;;;;0.85;0.47;;;16.70;68.60;;;;;;4986765;28;20532;-76
2023/03/29 00:08:52;;;;;;;0.93;0.75;;;16.70;68.70;;;;;;5002948;28;20704;-76
2023/03/29 00:11:18;;;;;;;0.40;0.40;;;16.70;68.70;;;;;;5006568;28;20125;-76
2023/03/29 00:13:44;;;;;;;0.35;0.30;;;16.70;68.70;;;;;;5007635;28;20362;-76
2023/03/29 00:16:11;;;;;;;0.40;0.40;;;16.70;68.80;;;;;;5003997;28;20049;-76
2023/03/29 00:18:37;;;;;;;0.40;0.30;;;16.70;68.80;;;;;;5003214;28;20117;-76
2023/03/29 00:21:03;;;;;;;0.90;0.40;;;16.70;68.80;;;;;;4986370;28;20068;-76
2023/03/29 00:23:29;;;;;;;1.30;0.40;;;16.70;68.80;;;;;;5003954;28;20539;-76
2023/03/29 00:25:55;;;;;;;0.60;0.40;;;16.70;68.80;;;;;;5005310;28;20041;-76
2023/03/29 00:28:21;;;;;;;0.93;0.50;;;16.70;68.90;;;;;;4989236;28;20045;-77
2023/03/29 00:30:46;;;;;;;0.60;0.50;;;16.70;68.90;;;;;;5004399;28;20503;-76
2023/03/29 00:33:13;;;;;;;0.30;0.25;;;16.70;68.90;;;;;;5006020;28;20124;-76
2023/03/29 00:35:39;;;;;;;0.85;0.50;;;16.70;68.90;;;;;;4987768;28;20080;-76
2023/03/29 00:38:05;;;;;;;0.70;0.40;;;16.60;68.90;;;;;;5004198;28;20069;-76
2023/03/29 00:40:31;;;;;;;0.90;0.38;;;16.60;68.90;;;;;;5005487;28;20054;-76
2023/03/29 00:42:57;;;;;;;0.60;0.52;;;16.60;68.90;;;;;;4999909;28;20101;-76
2023/03/29 00:45:29;;;;;;;3.72;0.40;;;16.70;69.00;;;;;;5005403;28;20049;-76
2023/03/29 00:48:02;;;;;;;0.40;0.25;;;16.60;69.00;;;;;;5005390;28;20076;-76
2023/03/29 00:50:44;;;;;;;1.05;0.57;;;16.60;69.00;;;;;;5001093;28;20046;-76
2023/03/29 00:53:22;;;;;;;0.40;0.30;;;16.60;69.00;;;;;;5013118;28;23457;-76
2023/03/29 00:56:00;;;;;;;0.50;0.50;;;16.60;68.90;;;;;;4985913;28;20069;-76
2023/03/29 00:58:29;;;;;;;0.60;0.30;;;16.70;69.00;;;;;;5004052;28;20131;-76
2023/03/29 01:01:10;;;;;;;0.40;0.32;;;16.60;69.00;;;;;;5008444;28;20604;-76
2023/03/29 01:03:49;;;;;;;0.40;0.40;;;16.60;69.00;;;;;;4986470;28;20038;-76
2023/03/29 01:06:16;;;;;;;0.43;0.30;;;16.60;68.90;;;;;;5004520;28;20081;-76
2023/03/29 01:08:48;;;;;;;0.55;0.38;;;16.60;69.10;;;;;;4983714;28;20057;-76
2023/03/29 01:11:18;;;;;;;0.85;0.70;;;16.60;69.00;;;;;;5002220;28;20519;-76
2023/03/29 01:13:48;;;;;;;0.40;0.35;;;16.60;69.00;;;;;;5004947;28;20498;-76
2023/03/29 01:16:13;;;;;;;0.80;0.50;;;16.60;69.00;;;;;;5004950;28;20038;-76
2023/03/29 01:18:40;;;;;;;0.38;0.30;;;16.60;69.00;;;;;;4990796;28;20042;-76
2023/03/29 01:21:15;;;;;;;0.40;0.40;;;16.60;69.00;;;;;;5008849;28;20087;-76
2023/03/29 01:23:46;;;;;;;0.50;0.40;;;16.60;69.00;;;;;;5018546;28;20130;-76
2023/03/29 01:26:33;;;;;;;0.40;0.40;;;16.60;69.00;;;;;;5009539;28;20085;-76
2023/03/29 01:29:03;;;;;;;0.82;0.50;;;16.60;69.10;;;;;;5005397;28;20044;-76
2023/03/29 01:31:41;;;;;;;0.32;0.30;;;16.60;69.10;;;;;;5007341;28;20077;-76
2023/03/29 01:34:19;;;;;;;0.30;0.30;;;16.60;69.20;;;;;;5008346;28;20070;-76
2023/03/29 01:36:50;;;;;;;0.65;0.50;;;16.60;69.10;;;;;;5006427;28;20504;-76
2023/03/29 01:39:17;;;;;;;0.57;0.50;;;16.60;69.20;;;;;;5006022;28;20081;-76
2023/03/29 01:42:07;;;;;;;0.73;0.40;;;16.60;69.10;;;;;;5007431;28;20054;-76
2023/03/29 01:44:52;;;;;;;0.88;0.40;;;16.60;69.10;;;;;;5002299;28;20038;-76
2023/03/29 01:47:27;;;;;;;0.57;0.30;;;16.60;69.10;;;;;;5009612;28;20045;-76
2023/03/29 01:50:08;;;;;;;0.50;0.50;;;16.60;69.10;;;;;;5009947;28;20088;-76
2023/03/29 01:53:02;;;;;;;1.00;0.50;;;16.60;69.20;;;;;;5008693;28;20136;-76
2023/03/29 01:55:31;;;;;;;0.30;0.30;;;16.60;69.20;;;;;;5002780;28;20042;-76
2023/03/29 01:57:57;;;;;;;0.40;0.40;;;16.60;69.20;;;;;;5015872;28;20096;-76
2023/03/29 02:00:24;;;;;;;0.47;0.28;;;16.60;69.20;;;;;;4988708;28;20531;-76
2023/03/29 02:02:50;;;;;;;0.70;0.50;;;16.60;69.20;;;;;;4991118;28;20404;-76
2023/03/29 02:05:16;;;;;;;0.60;0.47;;;16.60;69.20;;;;;;5005702;28;20100;-76
2023/03/29 02:07:42;;;;;;;1.50;0.47;;;16.60;69.20;;;;;;5000406;28;20034;-76
2023/03/29 02:10:08;;;;;;;0.98;0.50;;;16.60;69.20;;;;;;4990349;28;20065;-76
2023/03/29 02:12:34;;;;;;;0.68;0.60;;;16.60;69.30;;;;;;4987894;28;20256;-76
2023/03/29 02:15:00;;;;;;;0.57;0.40;;;16.60;69.20;;;;;;5007512;28;20070;-76
2023/03/29 02:17:26;;;;;;;0.70;0.50;;;16.60;69.20;;;;;;5006332;28;20046;-76
2023/03/29 02:20:01;;;;;;;0.57;0.57;;;16.60;69.20;;;;;;5006439;28;20049;-76
2023/03/29 02:22:29;;;;;;;0.63;0.47;;;16.60;69.20;;;;;;5005993;28;20029;-76
2023/03/29 02:24:57;;;;;;;0.40;0.40;;;16.60;69.30;;;;;;5005677;28;20062;-76
2023/03/29 02:27:24;;;;;;;0.40;0.40;;;16.60;69.30;;;;;;4971749;28;20039;-76
2023/03/29 02:29:50;;;;;;;1.20;0.60;;;16.60;69.30;;;;;;5004115;28;20051;-76
2023/03/29 02:32:39;;;;;;;0.80;0.70;;;16.60;69.30;;;;;;5006535;28;20041;-75
2023/03/29 02:35:07;;;;;;;0.88;0.65;;;16.60;69.40;;;;;;5003190;28;20069;-76
2023/03/29 02:37:33;;;;;;;0.45;0.45;;;16.60;69.30;;;;;;5005014;28;20042;-76
2023/03/29 02:39:58;;;;;;;0.90;0.70;;;16.60;69.40;;;;;;4998499;28;20526;-76
2023/03/29 02:42:24;;;;;;;0.70;0.40;;;16.60;69.40;;;;;;5021368;28;20022;-76
2023/03/29 02:44:51;;;;;;;0.63;0.55;;;16.60;69.40;;;;;;5005449;28;20054;-76
2023/03/29 02:47:21;;;;;;;0.50;0.35;;;16.60;69.40;;;;;;5002295;28;20511;-76
2023/03/29 02:49:47;;;;;;;1.05;0.75;;;16.60;69.40;;;;;;5006553;28;20053;-76
2023/03/29 02:52:15;;;;;;;0.57;0.50;;;16.60;69.30;;;;;;5013363;28;20049;-76
2023/03/29 02:54:42;;;;;;;0.52;0.45;;;16.60;69.50;;;;;;5004164;28;20097;-76
2023/03/29 02:57:09;;;;;;;0.63;0.50;;;16.60;69.40;;;;;;5006597;28;20096;-76
2023/03/29 02:59:34;;;;;;;0.95;0.70;;;16.60;69.40;;;;;;5006709;28;20507;-76
2023/03/29 03:02:00;;;;;;;0.60;0.60;;;16.60;69.50;;;;;;5005953;28;20048;-76
2023/03/29 03:04:26;;;;;;;0.57;0.43;;;16.50;69.40;;;;;;5005154;28;20059;-76
2023/03/29 03:06:51;;;;;;;0.68;0.50;;;16.50;69.40;;;;;;5015973;28;20045;-76
2023/03/29 03:09:17;;;;;;;0.77;0.57;;;16.60;69.50;;;;;;5005824;28;20553;-75
2023/03/29 03:11:42;;;;;;;0.50;0.50;;;16.50;69.40;;;;;;5005906;28;20042;-76
2023/03/29 03:14:08;;;;;;;1.17;0.70;;;16.50;69.40;;;;;;5005631;28;20037;-76
2023/03/29 03:16:34;;;;;;;0.77;0.60;;;16.50;69.40;;;;;;5004824;28;20426;-76
2023/03/29 03:19:00;;;;;;;0.57;0.43;;;16.60;69.60;;;;;;5004972;28;20081;-76
2023/03/29 03:21:29;;;;;;;0.60;0.60;;;16.50;69.40;;;;;;5005980;28;20116;-76
2023/03/29 03:23:54;;;;;;;0.85;0.50;;;16.50;69.40;;;;;;5005461;28;20058;-75
2023/03/29 03:26:20;;;;;;;1.08;0.57;;;16.50;69.50;;;;;;5006141;28;20062;-76
2023/03/29 03:28:46;;;;;;;0.35;0.35;;;16.50;69.50;;;;;;5006868;28;20045;-76
2023/03/29 03:31:14;;;;;;;0.40;0.40;;;16.50;69.50;;;;;;5006920;28;20053;-76
2023/03/29 03:33:40;;;;;;;1.42;0.50;;;16.50;69.50;;;;;;5006123;28;20474;-76
2023/03/29 03:36:09;;;;;;;0.40;0.40;;;16.50;69.50;;;;;;5004119;28;20125;-76
2023/03/29 03:38:36;;;;;;;0.80;0.43;;;16.50;69.60;;;;;;5002113;28;20121;-76
2023/03/29 03:41:02;;;;;;;0.50;0.50;;;16.50;69.60;;;;;;5005102;28;20128;-76
2023/03/29 03:43:27;;;;;;;0.30;0.22;;;16.50;69.60;;;;;;5003436;28;20033;-76
2023/03/29 03:45:54;;;;;;;0.55;0.50;;;16.50;69.60;;;;;;5005675;28;20033;-76
2023/03/29 03:48:20;;;;;;;1.52;0.60;;;16.50;69.60;;;;;;5005596;28;20524;-76
2023/03/29 03:50:56;;;;;;;1.10;0.55;;;16.50;69.60;;;;;;5005916;28;20049;-76
2023/03/29 03:53:23;;;;;;;0.50;0.50;;;16.50;69.60;;;;;;5003559;28;20030;-76
2023/03/29 03:55:49;;;;;;;0.60;0.30;;;16.50;69.60;;;;;;5004710;28;20049;-76
2023/03/29 03:58:16;;;;;;;0.30;0.30;;;16.50;69.60;;;;;;5007458;28;20053;-76
2023/03/29 04:00:41;;;;;;;0.40;0.32;;;16.50;69.70;;;;;;5004727;28;20057;-76
2023/03/29 04:03:07;;;;;;;0.40;0.38;;;16.50;69.70;;;;;;5003304;28;20038;-76
2023/03/29 04:05:33;;;;;;;0.22;0.22;;;16.50;69.60;;;;;;5004318;28;20038;-75
2023/03/29 04:07:59;;;;;;;0.60;0.40;;;16.50;69.70;;;;;;5006250;28;20546;-76
2023/03/29 04:10:25;;;;;;;1.15;0.50;;;16.50;69.70;;;;;;5003031;28;20120;-76
2023/03/29 04:12:50;;;;;;;0.95;0.52;;;16.50;69.70;;;;;;5003204;28;20122;-76
2023/03/29 04:15:16;;;;;;;0.50;0.40;;;16.50;69.70;;;;;;5005904;28;20030;-76
2023/03/29 04:17:42;;;;;;;0.63;0.50;;;16.50;69.70;;;;;;5005062;28;21008;-76
2023/03/29 04:20:12;;;;;;;0.47;0.47;;;16.50;69.70;;;;;;5004936;28;20065;-76
2023/03/29 04:22:38;;;;;;;0.50;0.50;;;16.50;69.70;;;;;;5005984;28;20441;-76
2023/03/29 04:25:05;;;;;;;0.40;0.40;;;16.50;69.70;;;;;;5006871;28;20590;-76
2023/03/29 04:27:31;;;;;;;1.00;0.52;;;16.50;69.70;;;;;;4986321;28;20096;-76
2023/03/29 04:29:57;;;;;;;0.45;0.40;;;16.50;69.70;;;;;;5005243;28;20030;-76
2023/03/29 04:32:22;;;;;;;0.77;0.50;;;16.50;69.70;;;;;;5003899;28;20065;-76
2023/03/29 04:34:48;;;;;;;0.35;0.30;;;16.50;69.70;;;;;;5004899;28;20114;-76
2023/03/29 04:37:15;;;;;;;1.13;0.40;;;16.50;69.70;;;;;;5004250;28;20099;-76
2023/03/29 04:39:41;;;;;;;1.08;0.50;;;16.50;69.70;;;;;;4987729;28;20038;-76
2023/03/29 04:42:07;;;;;;;0.68;0.65;;;16.50;69.70;;;;;;5005218;28;20050;-76
2023/03/29 04:44:33;;;;;;;0.47;0.38;;;16.50;69.80;;;;;;5007323;28;20452;-76
2023/03/29 04:46:59;;;;;;;0.75;0.50;;;16.50;69.80;;;;;;5010932;28;20037;-76
2023/03/29 04:49:25;;;;;;;1.00;0.40;;;16.50;69.80;;;;;;5010662;28;20056;-76
2023/03/29 04:51:52;;;;;;;0.90;0.40;;;16.50;69.80;;;;;;5006235;28;20042;-75
2023/03/29 04:54:17;;;;;;;1.55;0.30;;;16.50;69.80;;;;;;5006238;28;20049;-75
2023/03/29 04:56:43;;;;;;;0.50;0.50;;;16.50;69.80;;;;;;5007175;28;20041;-76
2023/03/29 04:59:08;;;;;;;0.50;0.43;;;16.50;69.80;;;;;;5008671;28;20285;-76
2023/03/29 05:01:34;;;;;;;0.70;0.50;;;16.50;69.80;;;;;;5009842;28;20048;-76
2023/03/29 05:04:01;;;;;;;0.77;0.70;;;16.50;69.80;;;;;;5003892;28;20504;-77
2023/03/29 05:06:28;;;;;;;0.60;0.50;;;16.50;69.80;;;;;;5008565;28;20034;-76
2023/03/29 05:08:54;;;;;;;0.60;0.50;;;16.50;69.70;;;;;;5005130;28;20049;-77
2023/03/29 05:11:20;;;;;;;0.85;0.45;;;16.50;69.70;;;;;;5006122;28;20550;-76
2023/03/29 05:13:45;;;;;;;0.95;0.68;;;16.60;69.40;;;;;;5008883;28;20438;-76
2023/03/29 05:16:11;;;;;;;1.10;0.65;;;16.60;69.60;;;;;;5007204;28;20531;-76
2023/03/29 05:18:36;;;;;;;1.35;0.40;;;16.60;69.60;;;;;;5007256;28;20137;-76
2023/03/29 05:21:02;;;;;;;0.80;0.57;;;16.60;69.90;;;;;;5007149;28;20038;-76
2023/03/29 05:23:28;;;;;;;2.90;0.85;;;16.60;69.80;;;;;;5004470;28;20042;-79
2023/03/29 05:25:54;;;;;;;0.93;0.73;;;16.60;69.70;;;;;;4992651;28;20077;-78
2023/03/29 05:28:19;;;;;;;0.90;0.55;;;16.60;69.90;;;;;;5017321;28;20052;-78
2023/03/29 05:30:45;;;;;;;0.70;0.60;;;16.60;70.80;;;;;;5015777;28;20881;-77
2023/03/29 05:33:11;;;;;;;1.25;0.43;;;16.60;69.80;;;;;;4988885;28;20038;-78
2023/03/29 05:35:37;;;;;;;0.80;0.55;;;16.60;69.70;;;;;;5005295;28;20037;-80
2023/03/29 05:38:03;;;;;;;0.65;0.63;;;16.60;69.70;;;;;;4659147;28;9999827;-80
2023/03/29 05:40:30;;;;;;;0.73;0.55;;;16.60;70.00;;;;;;5004779;28;20057;-81
2023/03/29 05:42:56;;;;;;;1.83;0.30;;;16.60;70.30;;;;;;5002946;28;20515;-80
2023/03/29 05:45:23;;;;;;;0.70;0.70;;;16.60;70.00;;;;;;4999657;28;20054;-80
2023/03/29 05:47:49;;;;;;;0.45;0.38;;;16.60;70.00;;;;;;5003812;28;20054;-80
2023/03/29 05:50:14;;;;;;;0.63;0.52;;;16.60;70.00;;;;;;4986490;28;20113;-81
2023/03/29 05:52:40;;;;;;;0.68;0.50;;;16.60;70.10;;;;;;5002314;28;20050;-81
2023/03/29 05:55:06;;;;;;;0.80;0.40;;;16.60;70.00;;;;;;4986155;28;20514;-81
2023/03/29 05:57:36;;;;;;;0.57;0.38;;;16.60;70.00;;;;;;4987622;28;20080;-79
2023/03/29 06:00:15;;;;;;;0.88;0.40;;;16.60;70.00;;;;;;4988013;28;20046;-79
2023/03/29 06:02:41;;;;;;;1.45;0.50;;;16.60;70.00;;;;;;4987790;28;20049;-79
2023/03/29 06:05:07;;;;;;;1.70;0.50;;;16.60;69.90;;;;;;5004504;28;20045;-79
2023/03/29 06:07:33;;;;;;;0.60;0.50;;;16.60;70.00;;;;;;5001756;28;20042;-79
2023/03/29 06:09:59;;;;;;;0.30;0.28;;;16.60;69.90;;;;;;5001900;28;20076;-81
2023/03/29 06:12:25;;;;;;;1.00;0.50;;;16.60;69.90;;;;;;4989467;28;20046;-80
2023/03/29 06:14:50;;;;;;;0.60;0.60;;;16.60;69.80;;;;;;5002430;28;20305;-80
2023/03/29 06:17:16;;;;;;;0.60;0.60;;;16.60;69.80;;;;;;5005667;28;20566;-83
2023/03/29 06:19:43;;;;;;;0.73;0.35;;;16.60;70.00;;;;;;4986033;28;20415;-83
2023/03/29 06:22:08;;;;;;;0.80;0.40;;;16.60;69.60;;;;;;5002277;28;20046;-82
2023/03/29 06:24:34;;;;;;;1.23;0.65;;;16.60;69.60;;;;;;4986649;28;20042;-81
2023/03/29 06:27:00;;;;;;;1.10;0.70;;;16.60;69.70;;;;;;4984633;28;20034;-81
2023/03/29 06:29:25;;;;;;;0.32;0.32;;;16.60;70.00;;;;;;5012561;28;20050;-81
2023/03/29 06:31:52;;;;;;;0.50;0.50;;;16.60;69.70;;;;;;5003626;28;20054;-82
2023/03/29 06:34:18;;;;;;;0.55;0.55;;;16.60;69.60;;;;;;5001072;28;20056;-82
2023/03/29 06:36:44;;;;;;;0.90;0.60;;;16.60;69.40;;;;;;5001001;28;20050;-82
2023/03/29 06:39:10;;;;;;;0.40;0.40;;;16.60;69.30;;;;;;5000725;28;20042;-79
2023/03/29 06:41:35;;;;;;;0.50;0.50;;;16.60;68.90;;;;;;4999308;28;20108;-79
2023/03/29 06:44:02;;;;;;;0.75;0.57;;;16.60;69.10;;;;;;4984215;28;20034;-80
2023/03/29 06:46:28;;;;;;;0.68;0.50;;;16.70;69.20;;;;;;4986062;28;20065;-81
2023/03/29 06:48:54;;;;;;;0.47;0.40;;;16.60;69.00;;;;;;5000951;28;20784;-82
2023/03/29 06:51:20;;;;;;;0.60;0.40;;;16.60;69.10;;;;;;5002084;28;20038;-80
2023/03/29 06:53:46;;;;;;;0.40;0.40;;;16.60;69.40;;;;;;5001683;28;20109;-82
2023/03/29 06:56:11;;;;;;;1.00;0.65;;;16.60;69.50;;;;;;4999432;28;20818;-80
2023/03/29 06:58:37;;;;;;;1.17;0.80;;;16.70;69.80;;;;;;5007295;28;20038;-80
2023/03/29 07:01:03;;;;;;;1.25;0.43;;;16.70;69.80;;;;;;5005273;28;20061;-79
2023/03/29 07:03:29;;;;;;;1.17;0.50;;;16.70;69.80;;;;;;5005060;28;20034;-79
2023/03/29 07:06:03;;;;;;;1.00;0.50;;;16.70;69.90;;;;;;5007722;28;20040;-79
2023/03/29 07:08:30;;;;;;;0.60;0.47;;;16.70;69.80;;;;;;5004701;28;20030;-78
2023/03/29 07:10:57;;;;;;;0.85;0.50;;;16.70;69.90;;;;;;5006971;28;20209;-79
2023/03/29 07:13:23;;;;;;;0.40;0.30;;;16.70;69.80;;;;;;5001204;28;20045;-80
2023/03/29 07:15:48;;;;;;;0.70;0.40;;;16.60;69.70;;;;;;5005222;28;22615;-80
2023/03/29 07:18:16;;;;;;;0.95;0.88;;;16.60;69.60;;;;;;5005277;28;20039;-79
2023/03/29 07:20:42;;;;;;;0.80;0.50;;;16.60;69.70;;;;;;5005513;28;20396;-78
2023/03/29 07:23:08;;;;;;;0.95;0.40;;;16.60;69.60;;;;;;5007336;28;20049;-79
2023/03/29 07:25:34;;;;;;;7.07;0.50;;;16.60;69.60;;;;;;5008523;28;20094;-79
2023/03/29 07:27:59;;;;;;;0.60;0.40;;;16.60;69.60;;;;;;5006501;28;20042;-80
2023/03/29 07:30:27;;;;;;;1.00;0.40;;;16.60;69.60;;;;;;5007786;28;20042;-79
2023/03/29 07:32:52;;;;;;;0.60;0.40;;;16.60;69.60;;;;;;5005375;28;20062;-79
2023/03/29 07:35:18;;;;;;;2.25;0.57;;;16.60;69.60;;;;;;5006990;28;20045;-79
2023/03/29 07:37:44;;;;;;;0.80;0.50;;;16.60;69.60;;;;;;5003796;28;20156;-79
2023/03/29 07:40:15;;;;;;;0.68;0.40;;;16.60;69.70;;;;;;4999233;28;20053;-79
2023/03/29 07:42:44;;;;;;;0.55;0.38;;;16.70;69.80;;;;;;5004182;28;20077;-79
2023/03/29 07:45:12;;;;;;;0.65;0.43;;;16.60;69.60;;;;;;5007095;28;20049;-80
2023/03/29 07:47:45;;;;;;;0.68;0.50;;;16.60;69.60;;;;;;5006216;28;20053;-80
2023/03/29 07:50:11;;;;;;;1.48;0.45;;;16.60;69.70;;;;;;5006465;28;20068;-79
2023/03/29 07:52:37;;;;;;;0.68;0.45;;;16.60;69.60;;;;;;5006441;28;20099;-79
2023/03/29 07:55:04;;;;;;;1.10;0.40;;;16.60;69.60;;;;;;5005354;28;20049;-79
2023/03/29 07:57:30;;;;;;;0.47;0.47;;;16.60;69.50;;;;;;5004179;28;20042;-79
2023/03/29 07:59:55;;;;;;;0.60;0.40;;;16.60;69.60;;;;;;5002659;28;20037;-79
2023/03/29 08:02:21;;;;;;;2.33;0.50;;;16.70;69.10;;;;;;5006146;28;20549;-79
2023/03/29 08:04:47;;;;;;;1.65;0.40;;;16.60;69.00;;;;;;5005800;28;20041;-79
2023/03/29 08:07:13;;;;;;;0.30;0.30;;;16.60;69.10;;;;;;5006474;28;20372;-79
2023/03/29 08:09:39;;;;;;;0.45;0.40;;;16.60;69.20;;;;;;5004824;28;20103;-79
2023/03/29 08:12:05;;;;;;;1.02;0.50;;;16.60;69.20;;;;;;5007265;28;20049;-79
2023/03/29 08:14:30;;;;;;;0.43;0.43;;;16.70;70.00;;;;;;5005495;28;20084;-79
2023/03/29 08:16:56;;;;;;;0.88;0.45;;;16.60;69.20;;;;;;5003122;28;20096;-79
2023/03/29 08:19:22;;;;;;;0.60;0.40;;;16.60;69.30;;;;;;5008662;28;20123;-79
2023/03/29 08:21:47;;;;;;;0.75;0.40;;;16.60;69.20;;;;;;5008180;28;20407;-79
2023/03/29 08:24:13;;;;;;;0.85;0.40;;;16.60;69.30;;;;;;5011592;28;20037;-79
2023/03/29 08:26:38;;;;;;;0.40;0.35;;;16.60;69.30;;;;;;5010417;28;20100;-79
2023/03/29 08:29:05;;;;;;;0.57;0.57;;;16.70;69.40;;;;;;5009941;28;20069;-79
2023/03/29 08:31:31;;;;;;;0.57;0.40;;;16.60;69.20;;;;;;5010381;28;20068;-79
2023/03/29 08:33:56;;;;;;;0.60;0.50;;;16.60;69.20;;;;;;5009058;28;20046;-78
2023/03/29 08:36:22;;;;;;;1.75;0.35;;;16.70;70.10;;;;;;5010360;28;20049;-79
2023/03/29 08:38:49;;;;;;;0.43;0.40;;;16.60;69.20;;;;;;5008540;28;20419;-79
2023/03/29 08:41:52;;;;;;;0.50;0.38;;;16.60;69.20;;;;;;5011158;28;20121;-79
2023/03/29 08:44:23;;;;;;;0.68;0.50;;;16.60;69.20;;;;;;5008117;28;20076;-79
2023/03/29 08:47:23;;;;;;;1.02;0.63;;;16.60;69.20;;;;;;5006851;28;20037;-79
2023/03/29 08:49:51;;;;;;;0.35;0.30;;;16.70;69.20;;;;;;5008080;28;20046;-79
2023/03/29 08:52:37;;;;;;;0.50;0.50;;;16.70;69.10;;;;;;5007946;28;20495;-79
2023/03/29 08:55:07;;;;;;;0.63;0.40;;;16.70;69.00;;;;;;5008512;28;20535;-79
2023/03/29 08:57:39;;;;;;;0.43;0.43;;;16.70;68.90;;;;;;5006614;28;20085;-79
2023/03/29 09:00:05;;;;;;;1.40;0.57;;;16.80;69.00;;;;;;5008614;28;20084;-79
2023/03/29 09:02:32;;;;;;;0.45;0.40;;;16.80;68.90;;;;;;5005626;28;20050;-79
2023/03/29 09:05:16;;;;;;;0.40;0.40;;;16.80;68.80;;;;;;5002959;28;20523;-78
2023/03/29 09:07:42;;;;;;;0.68;0.40;;;16.80;68.70;;;;;;5008397;28;20088;-79
2023/03/29 09:10:14;;;;;;;0.93;0.40;;;16.80;68.70;;;;;;5015268;28;20042;-79
2023/03/29 09:12:57;;;;;;;0.50;0.50;;;16.80;68.70;;;;;;5007715;28;20045;-79
2023/03/29 09:16:12;;;;;;;0.30;0.30;;;16.80;68.70;;;;;;4992711;28;20034;-79
2023/03/29 09:18:55;;;;;;;0.73;0.50;;;16.80;68.80;;;;;;5020319;28;20044;-79
2023/03/29 09:21:33;;;;;;;0.50;0.40;;;16.80;68.70;;;;;;5023942;28;20038;-79
2023/03/29 09:24:20;;;;;;;0.50;0.40;;;16.70;68.60;;;;;;5023949;28;20038;-79
2023/03/29 09:26:58;;;;;;;0.68;0.60;;;16.80;68.50;;;;;;5022849;28;20070;-78
2023/03/29 09:29:52;;;;;;;1.85;0.60;;;16.80;68.40;;;;;;5023899;28;20040;-79
2023/03/29 09:33:00;;;;;;;0.47;0.30;;;16.80;68.30;;;;;;5010477;28;20069;-79
2023/03/29 09:35:25;;;;;;;0.70;0.50;;;16.90;68.20;;;;;;5008518;28;20044;-79
2023/03/29 09:37:52;;;;;;;0.47;0.40;;;16.80;68.40;;;;;;5018805;28;20038;-79
2023/03/29 09:40:25;;;;;;;0.50;0.47;;;16.90;68.70;;;;;;5025439;28;20049;-79
2023/03/29 09:42:51;;;;;;;0.40;0.40;;;16.90;68.40;;;;;;5006773;28;20056;-79
2023/03/29 09:45:16;;;;;;;0.75;0.50;;;16.90;68.40;;;;;;5026879;28;20625;-79
2023/03/29 09:47:53;;;;;;;0.88;0.52;;;16.90;68.40;;;;;;5005708;28;20186;-79
2023/03/29 09:50:25;;;;;;;0.57;0.40;;;16.90;68.40;;;;;;5009483;28;20068;-79
2023/03/29 09:52:50;;;;;;;0.38;0.38;;;16.90;68.20;;;;;;4997808;28;20066;-79
2023/03/29 09:55:17;;;;;;;0.85;0.55;;;16.90;68.00;;;;;;4990307;28;20053;-79
2023/03/29 09:57:43;;;;;;;1.13;0.63;;;16.90;67.80;;;;;;4985749;28;20653;-79
2023/03/29 10:00:10;;;;;;;2.20;0.73;;;16.90;67.60;;;;;;5006875;28;20042;-79
2023/03/29 10:02:36;;;;;;;0.52;0.45;;;16.90;67.60;;;;;;4991537;28;20527;-79
2023/03/29 10:05:04;;;;;;;0.63;0.43;;;16.90;67.60;;;;;;4986600;28;20035;-79
2023/03/29 10:07:43;;;;;;;0.32;0.30;;;16.90;67.50;;;;;;5001446;28;20035;-78
2023/03/29 10:10:10;;;;;;;0.40;0.38;;;16.90;67.70;;;;;;5000513;28;20038;-79
2023/03/29 10:12:36;;;;;;;0.35;0.25;;;16.90;67.80;;;;;;5005072;28;20565;-79
2023/03/29 10:15:02;;;;;;;0.38;0.38;;;16.90;68.00;;;;;;4987044;28;20080;-79
2023/03/29 10:17:32;;;;;;;0.32;0.32;;;16.90;68.00;;;;;;5008373;28;20077;-79
2023/03/29 10:20:00;;;;;;;0.52;0.50;;;16.90;67.70;;;;;;4990858;28;20034;-79
2023/03/29 10:22:31;;;;;;;0.40;0.40;;;16.90;67.70;;;;;;4975345;28;20045;-79
2023/03/29 10:24:56;;;;;;;0.38;0.38;;;16.90;67.30;;;;;;5000767;28;20026;-79
2023/03/29 10:27:29;;;;;;;0.80;0.45;;;16.90;67.10;;;;;;5002345;28;20487;-79
2023/03/29 10:29:55;;;;;;;0.52;0.38;;;17.00;67.00;;;;;;4987318;28;20026;-79
2023/03/29 10:32:24;;;;;;;0.40;0.30;;;17.00;67.10;;;;;;5007442;28;20534;-79
2023/03/29 10:34:49;;;;;;;0.38;0.38;;;17.00;67.10;;;;;;5007673;28;20470;-79
2023/03/29 10:37:18;;;;;;;0.50;0.50;;;17.00;67.30;;;;;;5005327;28;20483;-79
2023/03/29 10:39:45;;;;;;;0.40;0.40;;;17.00;67.10;;;;;;5004425;28;20474;-79
2023/03/29 10:42:16;;;;;;;0.30;0.30;;;17.00;67.10;;;;;;5004478;28;20037;-79
2023/03/29 10:44:41;;;;;;;0.40;0.40;;;17.00;67.00;;;;;;4989425;28;20486;-79
2023/03/29 10:47:14;;;;;;;0.50;0.30;;;17.00;66.70;;;;;;4977317;28;20524;-79
2023/03/29 10:49:45;;;;;;;0.40;0.40;;;17.00;66.80;;;;;;5016012;28;20054;-79
2023/03/29 10:52:15;;;;;;;0.38;0.38;;;17.00;66.70;;;;;;5003262;28;20422;-79
2023/03/29 10:54:40;;;;;;;0.40;0.40;;;17.10;66.60;;;;;;5004638;28;20046;-79
2023/03/29 10:57:09;;;;;;;0.30;0.30;;;17.10;66.60;;;;;;5004210;28;20056;-79
2023/03/29 10:59:49;;;;;;;0.30;0.30;;;17.10;66.70;;;;;;5002842;28;20034;-79
2023/03/29 11:02:40;;;;;;;0.70;0.47;;;17.10;66.70;;;;;;4997632;28;20042;-79
2023/03/29 11:05:06;;;;;;;0.40;0.40;;;17.10;66.70;;;;;;5007251;28;20038;-79
2023/03/29 11:07:51;;;;;;;0.20;0.20;;;17.10;66.60;;;;;;5004636;28;20033;-79
2023/03/29 11:10:44;;;;;;;0.40;0.40;;;17.10;66.60;;;;;;4997614;28;20504;-79
2023/03/29 11:13:19;;;;;;;0.40;0.40;;;17.10;66.70;;;;;;5002739;28;20096;-79
2023/03/29 11:16:13;;;;;;;0.50;0.43;;;17.10;67.30;;;;;;5015334;28;20568;-78
2023/03/29 11:19:00;;;;;;;0.50;0.50;;;17.10;67.80;;;;;;4999555;28;20411;-80
2023/03/29 11:21:50;;;;;;;1.13;0.40;;;17.20;68.80;;;;;;5005685;28;20503;-80
2023/03/29 11:24:48;;;;;;;0.57;0.40;;;17.10;68.40;;;;;;5006270;28;20038;-76
2023/03/29 11:27:37;;;;;;;0.40;0.40;;;17.10;68.70;;;;;;4989554;28;20124;-76
2023/03/29 11:30:06;;;;;;;0.63;0.47;;;17.10;68.90;;;;;;5004170;28;20034;-79
2023/03/29 11:32:33;;;;;;;0.30;0.30;;;17.20;69.80;;;;;;5006707;28;20426;-79
2023/03/29 11:35:24;;;;;;;0.60;0.60;;;17.20;69.40;;;;;;5001307;28;20037;-79
2023/03/29 11:38:02;;;;;;;0.47;0.47;;;17.20;69.70;;;;;;5000223;28;20030;-78
2023/03/29 11:40:33;;;;;;;1.70;0.45;;;17.20;68.80;;;;;;5007831;28;20510;-76
2023/03/29 11:42:59;;;;;;;0.50;0.50;;;17.20;69.00;;;;;;5006731;28;20041;-82
2023/03/29 11:45:46;;;;;;;0.70;0.70;;;17.20;69.20;;;;;;4982109;28;20622;-82
2023/03/29 11:48:33;;;;;;;0.50;0.50;;;17.20;69.10;;;;;;4988067;28;20050;-82
2023/03/29 11:51:31;;;;;;;0.80;0.50;;;17.20;69.00;;;;;;5001455;28;20495;-82
2023/03/29 11:54:06;;;;;;;0.60;0.60;;;17.20;68.60;;;;;;5006651;28;20038;-82
2023/03/29 11:56:34;;;;;;;0.40;0.30;;;17.30;68.40;;;;;;5007550;28;20925;-83
2023/03/29 11:59:04;;;;;;;0.73;0.60;;;17.30;68.20;;;;;;5004726;28;20026;-83
2023/03/29 12:01:36;;;;;;;0.32;0.32;;;17.30;68.20;;;;;;4989973;28;20057;-82
2023/03/29 12:04:09;;;;;;;0.95;0.75;;;17.30;68.00;;;;;;5001089;28;20584;-83
2023/03/29 12:06:46;;;;;;;1.48;0.60;;;17.30;68.10;;;;;;5004572;28;20061;-83
2023/03/29 12:09:20;;;;;;;0.47;0.40;;;17.30;67.90;;;;;;4988325;28;20045;-82
2023/03/29 12:12:08;;;;;;;0.95;0.52;;;17.30;67.80;;;;;;5006328;28;20053;-82
2023/03/29 12:14:41;;;;;;;0.60;0.40;;;17.30;67.80;;;;;;5003762;28;20454;-83
2023/03/29 12:17:10;;;;;;;0.50;0.50;;;17.30;67.90;;;;;;5003713;28;20586;-82
2023/03/29 12:19:54;;;;;;;0.43;0.28;;;17.30;67.90;;;;;;5006942;28;20056;-82
2023/03/29 12:22:21;;;;;;;0.50;0.47;;;17.30;67.80;;;;;;4993547;28;20439;-83
2023/03/29 12:24:46;;;;;;;0.77;0.50;;;17.30;67.80;;;;;;5004398;28;20385;-82
2023/03/29 12:27:45;;;;;;;0.60;0.50;;;17.30;67.90;;;;;;4988378;28;20049;-83
2023/03/29 12:30:37;;;;;;;0.55;0.45;;;17.40;67.90;;;;;;5000872;28;20061;-83
2023/03/29 12:33:15;;;;;;;0.40;0.40;;;17.30;67.90;;;;;;5006393;28;20476;-83
2023/03/29 12:36:03;;;;;;;0.45;0.30;;;17.30;67.90;;;;;;5005941;28;20053;-83
2023/03/29 12:38:29;;;;;;;0.50;0.50;;;17.30;68.00;;;;;;5001794;28;20145;-82
2023/03/29 12:40:59;;;;;;;0.40;0.40;;;17.30;68.00;;;;;;5004562;28;20132;-82
2023/03/29 12:43:38;;;;;;;0.50;0.50;;;17.30;68.00;;;;;;5004609;28;20040;-83
2023/03/29 12:46:17;;;;;;;0.90;0.70;;;17.30;68.00;;;;;;5014121;28;20046;-82
2023/03/29 12:48:43;;;;;;;0.80;0.40;;;17.30;68.10;;;;;;5004841;28;20541;-82
2023/03/29 12:51:17;;;;;;;0.60;0.60;;;17.30;67.90;;;;;;5003273;28;20119;-82
2023/03/29 12:53:48;;;;;;;0.50;0.50;;;17.40;68.00;;;;;;4987794;28;20053;-83
2023/03/29 12:56:19;;;;;;;0.52;0.47;;;17.40;67.80;;;;;;5004465;28;20049;-82
2023/03/29 12:58:54;;;;;;;0.50;0.50;;;17.40;67.70;;;;;;5006073;28;20050;-83
2023/03/29 13:01:25;;;;;;;0.40;0.40;;;17.40;67.60;;;;;;5004802;28;20049;-83
2023/03/29 13:03:54;;;;;;;0.28;0.20;;;17.40;67.60;;;;;;5004081;28;20046;-82